Time;durP1;ratioP1;P1;durP2;ratioP2;P2;SDS_P1;SDS_P2;PMS_P1;PMS_P2;Temp;Humidity;BMP_temperature;BMP_pressure;BME280_temperature;BME280_humidity;BME280_pressure;Samples;Min_cycle;Max_cycle;Signal;HPM_P1;HPM_P2
2023/06/26 00:01:09;;;;;;;8.77;7.23;;;26.30;52.50;;;;;;5061352;28;20466;-89
2023/06/26 00:03:36;;;;;;;9.63;8.07;;;26.20;52.40;;;;;;5104142;27;20444;-89
2023/06/26 00:06:03;;;;;;;7.93;7.03;;;26.20;52.20;;;;;;5097518;27;20505;-89
2023/06/26 00:08:30;;;;;;;10.97;7.90;;;26.20;52.10;;;;;;5052333;28;20471;-89
2023/06/26 00:10:57;;;;;;;9.00;7.57;;;26.10;52.00;;;;;;5052404;28;20463;-88
2023/06/26 00:13:26;;;;;;;8.80;7.67;;;26.10;52.40;;;;;;5082344;28;20447;-89
2023/06/26 00:15:53;;;;;;;8.10;7.33;;;26.10;52.60;;;;;;5079317;28;20504;-89
2023/06/26 00:18:20;;;;;;;7.63;6.83;;;26.00;52.70;;;;;;5096226;28;20803;-89
2023/06/26 00:20:47;;;;;;;9.77;7.27;;;26.00;52.70;;;;;;5069423;28;20470;-89
2023/06/26 00:23:17;;;;;;;9.83;8.80;;;25.90;53.10;;;;;;5052895;28;20974;-90
2023/06/26 00:25:44;;;;;;;9.20;7.07;;;25.90;53.30;;;;;;5063923;28;20506;-88
2023/06/26 00:28:11;;;;;;;7.87;7.10;;;25.90;53.40;;;;;;5069196;28;20482;-89
2023/06/26 00:30:40;;;;;;;11.77;8.35;;;25.90;53.60;;;;;;5052680;28;20460;-89
2023/06/26 00:33:07;;;;;;;9.10;7.20;;;25.80;53.50;;;;;;5061467;28;20201;-89
2023/06/26 00:35:35;;;;;;;8.37;7.53;;;25.80;53.60;;;;;;5047758;28;20506;-89
2023/06/26 00:38:02;;;;;;;9.60;7.57;;;25.60;52.90;;;;;;5079107;28;20446;-89
2023/06/26 00:40:29;;;;;;;8.40;7.60;;;24.90;54.30;;;;;;5084287;28;20605;-89
2023/06/26 00:42:57;;;;;;;9.70;8.00;;;25.00;54.50;;;;;;5053172;28;20823;-90
2023/06/26 00:45:24;;;;;;;7.83;7.03;;;25.10;53.90;;;;;;5086948;28;20464;-88
2023/06/26 00:47:52;;;;;;;8.33;7.40;;;25.30;53.60;;;;;;5095545;27;21145;-89
2023/06/26 00:50:19;;;;;;;8.97;6.73;;;25.30;53.20;;;;;;5071519;28;20451;-90
2023/06/26 00:52:47;;;;;;;7.60;6.90;;;25.30;52.90;;;;;;5063149;28;20452;-89
2023/06/26 00:55:14;;;;;;;8.00;7.20;;;25.30;53.20;;;;;;5081218;28;20201;-90
2023/06/26 00:57:41;;;;;;;11.70;9.10;;;25.30;53.30;;;;;;5057791;28;20451;-89
2023/06/26 01:00:10;;;;;;;10.00;7.60;;;25.30;53.20;;;;;;5075422;28;20522;-89
2023/06/26 01:02:38;;;;;;;9.17;8.10;;;25.30;53.00;;;;;;5080969;27;20459;-89
2023/06/26 01:05:07;;;;;;;9.47;8.43;;;25.20;53.40;;;;;;5082930;28;20455;-89
2023/06/26 01:07:37;;;;;;;8.70;7.57;;;25.00;53.80;;;;;;5069353;28;20454;-89
2023/06/26 01:10:05;;;;;;;18.00;8.63;;;25.00;53.70;;;;;;5069240;28;20458;-91
2023/06/26 01:12:33;;;;;;;9.70;8.37;;;25.00;53.50;;;;;;5073681;28;20462;-88
2023/06/26 01:15:01;;;;;;;12.83;9.10;;;25.00;53.30;;;;;;5096480;28;20543;-90
2023/06/26 01:17:31;;;;;;;8.50;7.60;;;25.00;53.30;;;;;;5064081;28;20458;-89
2023/06/26 01:19:59;;;;;;;28.93;8.57;;;25.00;53.20;;;;;;5049639;28;20444;-89
2023/06/26 01:22:34;;;;;;;9.53;7.73;;;25.00;53.20;;;;;;5064950;28;20541;-88
2023/06/26 01:25:17;;;;;;;8.40;7.60;;;25.00;53.30;;;;;;5066114;28;20532;-89
2023/06/26 01:27:48;;;;;;;8.63;7.80;;;24.90;53.50;;;;;;5054049;28;20447;-89
2023/06/26 01:30:17;;;;;;;15.00;7.80;;;24.90;53.80;;;;;;5097076;28;20495;-89
2023/06/26 01:32:45;;;;;;;9.50;8.03;;;24.90;53.90;;;;;;5088581;28;20503;-89
2023/06/26 01:35:14;;;;;;;10.03;8.63;;;24.80;53.90;;;;;;5083547;28;20427;-89
2023/06/26 01:37:41;;;;;;;8.60;7.67;;;24.80;54.00;;;;;;5091810;28;20812;-89
2023/06/26 01:40:09;;;;;;;10.77;8.33;;;24.70;54.60;;;;;;5050528;28;20447;-90
2023/06/26 01:42:36;;;;;;;8.70;7.70;;;24.70;54.20;;;;;;5063002;28;20486;-90
2023/06/26 01:45:12;;;;;;;12.45;7.65;;;24.70;54.10;;;;;;5075973;28;20472;-89
2023/06/26 01:47:42;;;;;;;10.67;8.37;;;24.70;54.20;;;;;;5047075;28;21420;-89
2023/06/26 01:50:16;;;;;;;10.13;7.97;;;24.70;54.10;;;;;;5074587;28;20451;-88
2023/06/26 01:52:50;;;;;;;9.60;8.60;;;24.70;54.00;;;;;;5077303;28;21138;-89
2023/06/26 01:55:24;;;;;;;10.90;8.63;;;24.60;53.90;;;;;;5052571;28;20464;-89
2023/06/26 01:57:55;;;;;;;10.37;8.63;;;24.50;54.20;;;;;;5050883;27;20529;-89
2023/06/26 02:00:25;;;;;;;12.97;8.33;;;24.30;54.50;;;;;;5076977;28;21058;-90
2023/06/26 02:02:53;;;;;;;9.70;8.37;;;24.00;54.80;;;;;;5058586;28;20534;-90
2023/06/26 02:05:20;;;;;;;8.87;7.97;;;23.80;54.90;;;;;;5085188;28;20459;-89
2023/06/26 02:07:47;;;;;;;9.80;8.20;;;23.90;54.80;;;;;;5074932;28;20497;-90
2023/06/26 02:10:14;;;;;;;9.50;8.50;;;24.00;54.60;;;;;;5067951;28;20489;-89
2023/06/26 02:12:42;;;;;;;9.90;8.43;;;24.10;54.50;;;;;;5058776;28;20452;-89
2023/06/26 02:15:10;;;;;;;9.73;8.73;;;24.10;54.20;;;;;;5095615;28;20447;-88
2023/06/26 02:17:38;;;;;;;9.23;8.13;;;24.20;54.00;;;;;;5060612;28;20872;-89
2023/06/26 02:20:09;;;;;;;11.07;8.47;;;24.20;53.90;;;;;;5042289;28;20444;-89
2023/06/26 02:22:37;;;;;;;8.90;8.10;;;24.20;53.80;;;;;;5092692;28;20479;-89
2023/06/26 02:25:04;;;;;;;9.10;7.90;;;24.20;53.90;;;;;;5048751;28;20463;-90
2023/06/26 02:27:33;;;;;;;9.40;8.20;;;24.20;53.90;;;;;;5106862;27;20531;-89
2023/06/26 02:30:00;;;;;;;10.47;8.80;;;24.10;53.70;;;;;;5071936;28;20454;-89
2023/06/26 02:32:27;;;;;;;8.20;7.40;;;24.10;53.70;;;;;;5048693;28;20475;-89
2023/06/26 02:34:55;;;;;;;8.37;7.57;;;24.10;53.60;;;;;;5049676;28;21280;-89
2023/06/26 02:37:22;;;;;;;9.60;7.70;;;24.10;53.60;;;;;;5063335;28;20452;-89
2023/06/26 02:39:49;;;;;;;8.87;7.97;;;24.10;53.60;;;;;;5094532;28;20450;-89
2023/06/26 02:42:16;;;;;;;9.33;7.87;;;24.10;53.50;;;;;;5060487;28;20503;-89
2023/06/26 02:44:43;;;;;;;15.43;8.33;;;24.10;53.60;;;;;;5065941;28;20570;-90
2023/06/26 02:47:10;;;;;;;9.57;8.57;;;24.00;53.70;;;;;;5066747;28;21027;-89
2023/06/26 02:49:40;;;;;;;9.67;8.20;;;24.00;53.90;;;;;;5066960;28;20194;-88
2023/06/26 02:52:09;;;;;;;9.97;7.90;;;23.90;54.00;;;;;;5080816;28;20464;-89
2023/06/26 02:54:36;;;;;;;11.43;8.70;;;23.90;54.60;;;;;;5061736;28;20499;-89
2023/06/26 02:57:05;;;;;;;8.93;7.50;;;23.90;54.90;;;;;;5091926;28;20446;-89
2023/06/26 02:59:33;;;;;;;9.60;7.70;;;23.80;54.80;;;;;;5060813;28;20477;-89
2023/06/26 03:02:00;;;;;;;10.13;8.60;;;23.80;54.90;;;;;;5049580;28;21068;-90
2023/06/26 03:04:36;;;;;;;10.93;8.63;;;23.80;54.80;;;;;;5071621;28;20483;-90
2023/06/26 03:07:03;;;;;;;8.50;7.70;;;23.70;54.60;;;;;;5076569;28;20444;-90
2023/06/26 03:09:31;;;;;;;11.83;7.80;;;23.80;54.70;;;;;;5072629;28;20455;-89
2023/06/26 03:11:58;;;;;;;11.17;8.50;;;23.70;54.50;;;;;;5052348;27;20856;-89
2023/06/26 03:14:26;;;;;;;11.73;8.10;;;23.70;54.50;;;;;;5054869;28;20450;-89
2023/06/26 03:16:57;;;;;;;10.33;8.63;;;23.70;54.30;;;;;;5078352;28;20469;-88
2023/06/26 03:19:24;;;;;;;13.80;8.90;;;23.70;54.10;;;;;;5051399;28;20545;-89
2023/06/26 03:22:14;;;;;;;14.13;8.80;;;23.70;54.10;;;;;;5079264;28;20535;-88
2023/06/26 03:24:45;;;;;;;10.27;8.23;;;23.50;54.70;;;;;;5069922;28;20462;-89
2023/06/26 03:27:12;;;;;;;11.07;9.40;;;23.30;55.10;;;;;;5070229;28;20520;-88
2023/06/26 03:29:39;;;;;;;10.13;8.83;;;23.40;55.10;;;;;;5086139;28;20470;-89
2023/06/26 03:32:07;;;;;;;10.97;9.30;;;23.30;55.00;;;;;;5054140;28;20495;-88
2023/06/26 03:34:35;;;;;;;11.87;8.60;;;23.30;55.00;;;;;;5112005;27;20436;-89
2023/06/26 03:37:03;;;;;;;10.53;8.90;;;23.30;54.70;;;;;;5048031;28;21451;-89
2023/06/26 03:39:30;;;;;;;9.97;8.20;;;23.30;54.70;;;;;;5079166;28;20829;-89
2023/06/26 03:42:00;;;;;;;9.93;8.93;;;23.30;54.50;;;;;;5109516;27;20570;-89
2023/06/26 03:44:27;;;;;;;10.40;8.93;;;23.30;54.40;;;;;;5085764;28;21378;-87
2023/06/26 03:46:54;;;;;;;9.50;7.57;;;23.40;54.40;;;;;;5069214;28;20221;-87
2023/06/26 03:49:21;;;;;;;10.93;8.93;;;23.40;54.30;;;;;;5049682;28;21614;-88
2023/06/26 03:51:49;;;;;;;8.80;7.90;;;23.40;54.30;;;;;;5068549;28;20482;-88
2023/06/26 03:54:15;;;;;;;11.53;8.97;;;23.40;54.50;;;;;;5093560;28;21116;-88
2023/06/26 03:56:43;;;;;;;9.50;8.37;;;23.30;54.50;;;;;;5061666;28;20455;-87
2023/06/26 03:59:12;;;;;;;9.03;8.03;;;23.30;54.80;;;;;;5064787;28;20513;-88
2023/06/26 04:01:39;;;;;;;9.70;8.70;;;23.30;54.70;;;;;;5072245;28;20478;-89
2023/06/26 04:04:06;;;;;;;10.20;9.20;;;23.30;54.70;;;;;;5048123;28;20733;-89
2023/06/26 04:06:34;;;;;;;10.80;8.60;;;23.30;54.90;;;;;;5089738;27;20814;-88
2023/06/26 04:09:02;;;;;;;12.73;8.30;;;23.30;55.00;;;;;;5053966;28;20538;-89
2023/06/26 04:11:29;;;;;;;9.65;8.65;;;23.30;55.20;;;;;;5050862;28;20836;-86
2023/06/26 04:13:56;;;;;;;11.05;8.60;;;23.30;56.10;;;;;;5062669;28;20202;-88
2023/06/26 04:16:25;;;;;;;9.20;8.30;;;23.30;55.00;;;;;;5069777;28;20559;-89
2023/06/26 04:18:52;;;;;;;11.80;9.40;;;23.30;54.90;;;;;;5105718;27;20505;-88
2023/06/26 04:21:20;;;;;;;12.20;9.00;;;23.20;55.20;;;;;;5043424;28;20516;-89
2023/06/26 04:23:47;;;;;;;11.48;8.77;;;23.30;55.20;;;;;;5082357;28;20459;-89
2023/06/26 04:26:14;;;;;;;12.83;8.97;;;23.30;55.10;;;;;;5087720;28;20225;-89
2023/06/26 04:28:42;;;;;;;9.47;7.73;;;23.30;55.30;;;;;;5055514;28;20777;-89
2023/06/26 04:31:09;;;;;;;12.67;9.17;;;23.30;55.70;;;;;;5040216;28;20475;-89
2023/06/26 04:33:38;;;;;;;10.20;8.67;;;23.30;55.80;;;;;;5078015;28;20535;-88
2023/06/26 04:36:06;;;;;;;10.17;8.83;;;23.30;55.70;;;;;;5077894;28;20454;-88
2023/06/26 04:38:33;;;;;;;11.03;8.83;;;23.30;55.70;;;;;;5049549;28;20991;-90
2023/06/26 04:41:00;;;;;;;10.27;8.60;;;23.30;55.90;;;;;;5060079;28;20538;-90
2023/06/26 04:43:27;;;;;;;9.73;8.73;;;23.30;55.70;;;;;;5089116;27;20452;-90
2023/06/26 04:45:54;;;;;;;10.90;9.37;;;23.30;55.80;;;;;;5076879;28;21002;-90
2023/06/26 04:48:21;;;;;;;10.53;8.67;;;23.30;55.90;;;;;;5107289;27;20448;-90
2023/06/26 04:50:53;;;;;;;10.23;9.07;;;23.20;56.40;;;;;;5056980;28;20566;-89
2023/06/26 04:53:21;;;;;;;14.80;9.20;;;23.20;56.70;;;;;;5071763;28;20452;-90
2023/06/26 04:55:48;;;;;;;12.03;8.93;;;23.20;56.80;;;;;;5080589;28;20526;-90
2023/06/26 04:58:16;;;;;;;13.90;9.57;;;23.30;56.90;;;;;;5050520;28;20548;-90
2023/06/26 05:00:43;;;;;;;9.90;8.90;;;23.30;56.90;;;;;;5045992;27;20460;-91
2023/06/26 05:03:10;;;;;;;11.07;9.73;;;23.30;57.40;;;;;;5053245;28;20443;-90
2023/06/26 05:05:37;;;;;;;9.80;8.83;;;23.30;56.50;;;;;;5042945;28;20822;-90
2023/06/26 05:08:16;;;;;;;15.97;9.00;;;23.40;56.70;;;;;;5042162;28;20455;-89
2023/06/26 05:10:44;;;;;;;11.17;8.67;;;23.40;56.70;;;;;;5065644;27;20471;-90
2023/06/26 05:13:11;;;;;;;11.73;10.38;;;23.40;56.80;;;;;;5064150;28;20459;-89
2023/06/26 05:15:38;;;;;;;11.40;9.70;;;23.50;56.80;;;;;;5075558;28;20190;-90
2023/06/26 05:18:06;;;;;;;11.00;9.00;;;23.50;56.30;;;;;;5049971;28;20763;-90
2023/06/26 05:20:33;;;;;;;10.82;8.95;;;23.50;56.60;;;;;;5064114;28;20481;-91
2023/06/26 05:23:01;;;;;;;14.40;10.27;;;23.50;56.80;;;;;;5051030;28;20202;-91
2023/06/26 05:25:30;;;;;;;10.77;9.50;;;23.40;56.90;;;;;;5081240;28;20476;-90
2023/06/26 05:27:57;;;;;;;11.10;9.60;;;23.30;57.10;;;;;;5089586;28;20462;-89
2023/06/26 05:30:26;;;;;;;12.30;9.60;;;23.30;57.40;;;;;;5074961;28;20486;-90
2023/06/26 05:32:53;;;;;;;12.33;8.80;;;23.30;57.30;;;;;;5066768;27;20315;-89
2023/06/26 05:35:21;;;;;;;12.60;9.45;;;23.50;57.20;;;;;;5088052;28;20450;-89
2023/06/26 05:37:50;;;;;;;13.57;9.73;;;23.60;57.10;;;;;;5060869;28;20232;-89
2023/06/26 05:40:18;;;;;;;10.87;9.40;;;23.60;56.70;;;;;;5054873;28;20538;-89
2023/06/26 05:42:47;;;;;;;12.07;10.13;;;23.50;57.00;;;;;;5081393;28;20834;-90
2023/06/26 05:45:14;;;;;;;11.50;9.87;;;23.50;57.40;;;;;;5064330;28;20447;-90
2023/06/26 05:47:41;;;;;;;16.57;10.43;;;23.70;57.20;;;;;;5083042;28;20458;-89
2023/06/26 05:50:10;;;;;;;15.33;9.53;;;23.70;57.10;;;;;;5042630;28;20458;-90
2023/06/26 05:52:38;;;;;;;15.10;9.80;;;23.70;56.70;;;;;;5078384;28;20471;-90
2023/06/26 05:55:06;;;;;;;13.87;9.07;;;23.90;57.00;;;;;;5061558;28;20529;-90
2023/06/26 05:57:35;;;;;;;15.63;8.90;;;24.10;56.70;;;;;;5055316;28;20447;-90
2023/06/26 06:00:10;;;;;;;14.60;8.67;;;24.30;56.30;;;;;;5066406;28;20831;-90
2023/06/26 06:02:41;;;;;;;13.60;9.40;;;23.80;56.90;;;;;;5072312;28;20474;-89
2023/06/26 06:05:08;;;;;;;10.30;8.97;;;23.80;57.80;;;;;;5082203;28;20450;-90
2023/06/26 06:07:35;;;;;;;12.00;8.70;;;24.00;57.30;;;;;;5056092;28;20728;-88
2023/06/26 06:10:03;;;;;;;12.50;9.00;;;24.10;57.10;;;;;;5049743;28;20466;-89
2023/06/26 06:12:31;;;;;;;15.27;8.50;;;24.20;56.90;;;;;;5048422;28;20217;-89
2023/06/26 06:14:58;;;;;;;13.10;8.87;;;24.30;56.90;;;;;;5043977;28;20439;-90
2023/06/26 06:17:26;;;;;;;13.87;10.20;;;24.60;56.10;;;;;;5075811;28;20475;-90
2023/06/26 06:19:53;;;;;;;15.30;9.10;;;24.70;55.40;;;;;;5039139;28;20501;-90
2023/06/26 06:22:20;;;;;;;10.10;7.70;;;24.70;55.30;;;;;;5049664;28;20478;-90
2023/06/26 06:24:49;;;;;;;17.30;8.90;;;24.70;55.50;;;;;;5058613;28;20462;-87
2023/06/26 06:27:16;;;;;;;12.60;8.50;;;25.10;55.40;;;;;;5073618;28;20792;-91
2023/06/26 06:29:43;;;;;;;12.03;8.70;;;25.30;54.40;;;;;;5065221;28;20485;-89
2023/06/26 06:32:10;;;;;;;12.10;8.63;;;25.50;54.50;;;;;;5061476;28;20476;-90
2023/06/26 06:34:38;;;;;;;13.17;9.10;;;25.50;54.30;;;;;;5079564;28;20463;-90
2023/06/26 06:37:05;;;;;;;11.30;8.73;;;25.50;55.00;;;;;;5053823;28;20455;-90
2023/06/26 06:39:32;;;;;;;8.90;8.00;;;25.80;54.50;;;;;;5049921;28;20684;-89
2023/06/26 06:41:59;;;;;;;14.20;9.13;;;25.90;53.90;;;;;;5082542;28;20478;-90
2023/06/26 06:44:26;;;;;;;12.00;9.03;;;26.00;54.20;;;;;;5070206;28;20466;-90
2023/06/26 06:46:53;;;;;;;24.40;8.53;;;25.80;53.50;;;;;;5074052;28;20463;-90
2023/06/26 06:49:20;;;;;;;12.90;9.00;;;25.90;54.40;;;;;;5085569;28;20759;-88
2023/06/26 06:51:48;;;;;;;14.97;8.93;;;25.90;53.90;;;;;;5048711;28;20526;-89
2023/06/26 06:54:16;;;;;;;11.27;10.07;;;26.00;54.20;;;;;;5094029;27;20459;-89
2023/06/26 06:56:44;;;;;;;13.20;9.00;;;25.90;53.30;;;;;;5055103;28;20488;-89
2023/06/26 06:59:10;;;;;;;12.50;8.87;;;26.00;53.90;;;;;;5086880;28;20447;-89
2023/06/26 07:01:37;;;;;;;9.17;8.33;;;26.00;53.80;;;;;;5053466;27;20468;-89
2023/06/26 07:04:05;;;;;;;13.00;9.10;;;26.20;54.10;;;;;;5060014;28;20476;-90
2023/06/26 07:06:31;;;;;;;13.10;9.47;;;26.50;53.60;;;;;;5057805;28;20923;-89
2023/06/26 07:09:00;;;;;;;13.00;8.90;;;26.80;52.70;;;;;;5086396;28;20453;-87
2023/06/26 07:11:27;;;;;;;11.77;9.93;;;26.80;52.70;;;;;;5054814;28;20554;-89
2023/06/26 07:13:54;;;;;;;10.50;8.60;;;26.90;52.10;;;;;;5099864;27;20455;-89
2023/06/26 07:16:21;;;;;;;10.67;9.20;;;26.80;52.50;;;;;;5065000;28;20458;-89
2023/06/26 07:18:49;;;;;;;11.20;8.30;;;26.90;52.50;;;;;;5075981;28;20442;-88
2023/06/26 07:21:16;;;;;;;11.60;8.63;;;27.00;52.10;;;;;;5088067;28;21002;-89
2023/06/26 07:23:43;;;;;;;15.23;9.10;;;27.20;51.50;;;;;;5086911;28;21272;-89
2023/06/26 07:26:11;;;;;;;10.77;8.20;;;27.20;51.60;;;;;;5057309;28;20474;-88
2023/06/26 07:28:38;;;;;;;9.30;8.33;;;27.20;51.60;;;;;;5080208;28;20856;-89
2023/06/26 07:31:05;;;;;;;10.60;8.50;;;27.20;51.30;;;;;;5059119;28;20465;-89
2023/06/26 07:33:32;;;;;;;9.73;8.20;;;27.20;51.40;;;;;;5062860;28;20444;-88
2023/06/26 07:35:59;;;;;;;10.03;8.17;;;27.40;51.30;;;;;;5104857;27;20451;-90
2023/06/26 07:38:26;;;;;;;11.95;9.07;;;27.60;50.80;;;;;;5077953;28;20443;-89
2023/06/26 07:40:53;;;;;;;10.80;8.40;;;27.80;49.30;;;;;;5060308;28;20317;-90
2023/06/26 07:43:22;;;;;;;14.40;8.70;;;27.80;49.80;;;;;;5045245;28;20444;-89
2023/06/26 07:45:51;;;;;;;10.87;7.40;;;27.90;50.30;;;;;;5089549;27;20969;-90
2023/06/26 07:48:18;;;;;;;12.47;8.00;;;28.10;49.30;;;;;;5058097;28;20472;-89
2023/06/26 07:50:45;;;;;;;10.80;9.17;;;28.20;49.00;;;;;;5071426;28;20474;-88
2023/06/26 07:53:11;;;;;;;9.30;8.40;;;28.40;49.60;;;;;;5056789;28;20455;-88
2023/06/26 07:55:38;;;;;;;9.70;7.30;;;28.60;49.20;;;;;;5078441;28;20449;-89
2023/06/26 07:58:05;;;;;;;10.60;8.23;;;28.70;48.70;;;;;;5071734;28;20193;-89
2023/06/26 08:00:34;;;;;;;12.27;9.07;;;28.90;48.40;;;;;;5069182;28;20443;-89
2023/06/26 08:03:01;;;;;;;8.93;7.80;;;28.90;47.80;;;;;;5080037;28;20446;-89
2023/06/26 08:05:27;;;;;;;8.80;7.90;;;29.10;47.80;;;;;;5088817;28;20439;-90
2023/06/26 08:07:54;;;;;;;11.25;7.15;;;29.30;47.00;;;;;;5057410;28;20464;-89
2023/06/26 08:10:21;;;;;;;9.83;8.83;;;29.50;47.50;;;;;;5089979;28;20802;-88
2023/06/26 08:12:50;;;;;;;8.37;7.57;;;29.70;47.10;;;;;;5052360;28;20454;-89
2023/06/26 08:15:17;;;;;;;9.40;8.50;;;29.70;47.30;;;;;;5070292;28;20476;-89
2023/06/26 08:17:46;;;;;;;9.73;8.53;;;29.90;47.60;;;;;;5064235;28;20535;-89
2023/06/26 08:20:13;;;;;;;9.30;7.80;;;30.00;47.00;;;;;;5079552;28;20494;-89
2023/06/26 08:22:41;;;;;;;13.20;8.77;;;30.10;46.50;;;;;;5108129;27;20987;-87
2023/06/26 08:25:08;;;;;;;10.25;7.93;;;30.10;46.80;;;;;;5068249;28;20438;-88
2023/06/26 08:27:35;;;;;;;9.20;8.10;;;30.30;46.90;;;;;;5059835;28;20271;-89
2023/06/26 08:30:02;;;;;;;8.57;7.63;;;30.40;45.90;;;;;;5093316;28;20447;-87
2023/06/26 08:32:29;;;;;;;11.70;9.03;;;30.50;46.60;;;;;;5052234;28;20467;-89
2023/06/26 08:34:58;;;;;;;9.47;8.23;;;30.80;46.10;;;;;;5097732;28;20460;-88
2023/06/26 08:37:25;;;;;;;9.97;8.13;;;31.00;45.80;;;;;;5046990;28;20459;-91
2023/06/26 08:39:51;;;;;;;9.80;8.30;;;31.10;45.00;;;;;;5068213;28;20447;-88
2023/06/26 08:42:18;;;;;;;10.30;8.37;;;31.30;44.80;;;;;;5078779;28;20300;-87
2023/06/26 08:44:46;;;;;;;11.03;8.50;;;31.40;44.00;;;;;;5085636;28;20450;-88
2023/06/26 08:47:13;;;;;;;11.90;8.47;;;31.50;43.50;;;;;;5075398;28;20474;-89
2023/06/26 08:49:47;;;;;;;12.43;7.77;;;31.50;42.50;;;;;;5108457;27;20452;-85
2023/06/26 08:52:21;;;;;;;15.87;8.83;;;31.60;42.70;;;;;;5096586;28;20455;-87
2023/06/26 08:54:55;;;;;;;10.93;7.40;;;31.70;43.70;;;;;;5082336;28;20447;-89
2023/06/26 08:57:24;;;;;;;9.50;8.50;;;31.90;43.60;;;;;;5061300;28;20446;-88
2023/06/26 08:59:52;;;;;;;9.17;7.93;;;32.10;44.30;;;;;;5067157;28;20459;-89
2023/06/26 09:02:20;;;;;;;8.50;7.63;;;32.20;42.60;;;;;;5064574;28;20471;-89
2023/06/26 09:04:48;;;;;;;9.00;8.10;;;32.40;41.50;;;;;;5074556;28;20458;-89
2023/06/26 09:07:17;;;;;;;8.10;7.30;;;32.40;40.80;;;;;;5101058;28;20468;-88
2023/06/26 09:09:45;;;;;;;8.83;7.93;;;32.50;41.30;;;;;;5092994;27;20452;-89
2023/06/26 09:12:14;;;;;;;11.23;7.77;;;32.70;40.50;;;;;;5076741;28;20490;-88
2023/06/26 09:14:41;;;;;;;9.37;7.47;;;32.90;41.10;;;;;;5085389;28;20443;-87
2023/06/26 09:17:08;;;;;;;8.70;7.03;;;33.00;40.40;;;;;;5066950;28;20451;-89
2023/06/26 09:19:38;;;;;;;7.87;6.97;;;33.20;38.30;;;;;;5065021;28;20451;-88
2023/06/26 09:22:05;;;;;;;7.70;6.93;;;33.30;37.40;;;;;;5112070;27;20464;-87
2023/06/26 09:24:34;;;;;;;9.03;7.73;;;33.50;38.80;;;;;;5045343;28;20440;-88
2023/06/26 09:27:02;;;;;;;7.83;7.03;;;33.60;37.60;;;;;;5068003;28;20477;-89
2023/06/26 09:29:29;;;;;;;9.07;7.63;;;33.60;37.40;;;;;;5081585;28;20450;-89
2023/06/26 09:31:57;;;;;;;8.00;7.30;;;33.90;37.80;;;;;;5091346;28;20520;-88
2023/06/26 09:34:31;;;;;;;8.00;7.20;;;34.00;37.30;;;;;;5092045;28;20846;-88
2023/06/26 09:36:58;;;;;;;8.03;7.20;;;34.20;38.70;;;;;;5084682;28;20446;-88
2023/06/26 09:39:25;;;;;;;7.40;6.70;;;34.30;36.30;;;;;;5077907;28;20444;-89
2023/06/26 09:41:56;;;;;;;8.40;6.47;;;34.30;33.70;;;;;;5051609;28;20858;-88
2023/06/26 09:44:23;;;;;;;6.90;6.00;;;34.40;34.00;;;;;;5112249;27;20451;-89
2023/06/26 09:46:50;;;;;;;12.23;6.80;;;34.60;33.60;;;;;;5089526;27;20448;-87
2023/06/26 09:49:17;;;;;;;7.73;6.77;;;34.80;32.10;;;;;;5080642;28;20446;-89
2023/06/26 09:51:44;;;;;;;6.60;6.00;;;34.80;31.80;;;;;;5077002;28;20546;-87
2023/06/26 09:54:11;;;;;;;10.00;6.97;;;34.80;31.80;;;;;;5080778;28;20864;-89
2023/06/26 09:56:38;;;;;;;7.33;5.93;;;34.90;33.00;;;;;;5085006;28;20450;-90
2023/06/26 09:59:07;;;;;;;6.50;5.90;;;35.00;31.40;;;;;;5062812;28;20518;-88
2023/06/26 10:01:34;;;;;;;7.32;6.50;;;35.20;30.90;;;;;;5059415;28;20460;-88
2023/06/26 10:04:01;;;;;;;7.07;5.93;;;35.30;31.90;;;;;;5076118;28;20689;-88
2023/06/26 10:06:32;;;;;;;8.67;6.83;;;35.50;31.70;;;;;;5085067;28;20450;-87
2023/06/26 10:09:01;;;;;;;7.30;6.50;;;35.40;32.00;;;;;;5084278;28;20475;-87
2023/06/26 10:11:35;;;;;;;6.90;6.20;;;35.50;31.40;;;;;;5066203;28;20472;-89
2023/06/26 10:14:05;;;;;;;8.20;6.57;;;35.50;30.90;;;;;;5092729;28;20836;-88
2023/06/26 10:16:35;;;;;;;6.83;6.23;;;35.70;30.40;;;;;;5063174;28;20451;-88
2023/06/26 10:19:07;;;;;;;6.93;6.20;;;35.70;30.20;;;;;;5041813;28;21007;-88
2023/06/26 10:21:35;;;;;;;7.60;6.53;;;35.60;30.30;;;;;;5066484;28;20519;-88
2023/06/26 10:24:04;;;;;;;7.60;6.80;;;35.80;30.20;;;;;;5042669;28;21472;-90
2023/06/26 10:26:32;;;;;;;7.07;6.23;;;35.60;29.90;;;;;;5085729;28;20459;-89
2023/06/26 10:29:00;;;;;;;7.53;6.53;;;35.40;31.90;;;;;;5048831;28;20464;-89
2023/06/26 10:31:30;;;;;;;11.67;6.53;;;35.70;30.80;;;;;;5069991;28;20823;-88
2023/06/26 10:33:58;;;;;;;10.40;6.33;;;35.90;30.50;;;;;;5052204;28;20541;-92
2023/06/26 10:36:30;;;;;;;7.30;6.50;;;36.10;31.30;;;;;;5066841;28;21127;-90
2023/06/26 10:39:05;;;;;;;6.87;6.17;;;36.10;28.90;;;;;;5058073;28;20454;-89
2023/06/26 10:41:38;;;;;;;7.87;6.37;;;35.90;29.90;;;;;;5075894;28;20487;-88
2023/06/26 10:44:11;;;;;;;6.67;5.60;;;35.60;29.40;;;;;;5060417;28;20455;-88
2023/06/26 10:46:52;;;;;;;5.60;5.10;;;35.50;29.70;;;;;;5067845;28;20832;-89
2023/06/26 10:49:21;;;;;;;6.10;5.47;;;35.60;30.60;;;;;;5048450;28;20446;-89
2023/06/26 10:51:49;;;;;;;5.80;5.20;;;35.70;30.70;;;;;;5057221;28;20468;-89
2023/06/26 10:54:17;;;;;;;8.13;6.47;;;35.40;30.00;;;;;;5059568;28;20878;-87
2023/06/26 10:56:46;;;;;;;6.67;6.03;;;35.50;31.90;;;;;;5071600;28;20462;-89
2023/06/26 10:59:16;;;;;;;8.50;5.57;;;35.40;30.20;;;;;;5069900;28;20439;-88
2023/06/26 11:01:44;;;;;;;6.00;5.50;;;35.50;30.80;;;;;;5073378;28;21521;-88
2023/06/26 11:04:11;;;;;;;6.40;5.80;;;35.30;29.60;;;;;;5094804;28;20448;-87
2023/06/26 11:06:40;;;;;;;6.63;6.03;;;35.20;30.30;;;;;;5059456;28;20435;-87
2023/06/26 11:09:12;;;;;;;6.07;5.47;;;35.10;30.10;;;;;;5094129;28;20613;-88
2023/06/26 11:12:01;;;;;;;7.00;5.50;;;35.10;30.80;;;;;;5103303;28;20471;-86
2023/06/26 11:14:28;;;;;;;6.30;5.43;;;35.10;29.60;;;;;;5049830;28;20941;-89
2023/06/26 11:16:57;;;;;;;6.67;5.90;;;35.10;31.20;;;;;;5076750;28;20450;-89
2023/06/26 11:19:27;;;;;;;5.50;5.10;;;35.20;30.30;;;;;;5055208;28;20485;-85
2023/06/26 11:22:01;;;;;;;7.00;5.80;;;35.20;29.50;;;;;;5066260;28;20524;-91
2023/06/26 11:24:29;;;;;;;5.97;5.33;;;35.20;29.90;;;;;;5084095;28;20447;-89
2023/06/26 11:27:01;;;;;;;10.67;6.00;;;35.20;30.00;;;;;;5071940;28;20512;-87
2023/06/26 11:29:28;;;;;;;7.27;6.33;;;35.30;29.70;;;;;;5080330;28;20467;-88
2023/06/26 11:32:01;;;;;;;7.40;6.70;;;35.30;30.00;;;;;;5097101;27;20467;-87
2023/06/26 11:34:31;;;;;;;10.57;6.83;;;35.10;30.60;;;;;;5094957;28;20452;-87
2023/06/26 11:37:02;;;;;;;7.13;6.03;;;35.30;31.40;;;;;;5081862;27;20444;-87
2023/06/26 11:39:29;;;;;;;7.03;6.33;;;35.10;30.80;;;;;;5103675;27;20944;-89
2023/06/26 11:41:57;;;;;;;8.13;7.33;;;35.10;33.00;;;;;;5071917;28;20900;-86
2023/06/26 11:44:24;;;;;;;7.50;6.80;;;35.30;32.40;;;;;;5070116;28;20448;-88
2023/06/26 11:46:55;;;;;;;9.77;6.40;;;35.50;32.30;;;;;;5098393;28;21049;-88
2023/06/26 11:49:25;;;;;;;11.97;7.47;;;35.60;32.20;;;;;;5052458;28;20867;-87
2023/06/26 11:51:54;;;;;;;7.78;6.97;;;35.60;31.70;;;;;;5055029;28;20557;-87
2023/06/26 11:54:27;;;;;;;7.03;6.30;;;35.40;31.60;;;;;;5094866;28;20714;-87
2023/06/26 11:56:57;;;;;;;8.80;7.90;;;35.30;32.00;;;;;;5051251;28;20452;-87
2023/06/26 11:59:25;;;;;;;9.17;8.20;;;35.30;32.00;;;;;;5084514;28;20214;-88
2023/06/26 12:01:53;;;;;;;9.10;8.30;;;35.00;31.70;;;;;;5101219;28;20517;-89
2023/06/26 12:04:21;;;;;;;9.23;7.27;;;35.10;33.60;;;;;;5060996;28;20505;-88
2023/06/26 12:06:51;;;;;;;8.50;7.70;;;35.10;32.50;;;;;;5069674;28;20447;-88
2023/06/26 12:09:20;;;;;;;8.70;7.77;;;35.40;33.20;;;;;;5067598;28;20460;-87
2023/06/26 12:11:52;;;;;;;8.10;7.40;;;36.00;32.20;;;;;;5082492;28;21215;-87
2023/06/26 12:14:21;;;;;;;7.80;7.10;;;36.30;31.20;;;;;;5054002;28;20566;-88
2023/06/26 12:16:48;;;;;;;10.30;7.90;;;36.30;30.30;;;;;;5076743;28;20446;-86
2023/06/26 12:19:15;;;;;;;12.83;8.33;;;36.00;29.80;;;;;;5074231;28;20452;-86
2023/06/26 12:21:48;;;;;;;9.00;7.13;;;35.70;30.80;;;;;;5075048;28;20464;-88
2023/06/26 12:24:17;;;;;;;9.47;7.40;;;35.40;31.00;;;;;;5084190;28;20455;-87
2023/06/26 12:26:45;;;;;;;11.73;8.00;;;35.10;32.50;;;;;;5076894;28;20502;-86
2023/06/26 12:29:14;;;;;;;15.90;7.30;;;35.20;32.90;;;;;;5066270;28;20471;-87
2023/06/26 12:31:42;;;;;;;7.53;6.83;;;35.40;31.50;;;;;;5093572;27;20479;-88
2023/06/26 12:34:17;;;;;;;8.57;7.70;;;35.60;31.90;;;;;;5068820;28;20459;-87
2023/06/26 12:36:45;;;;;;;6.90;6.30;;;35.40;31.80;;;;;;5082727;28;20491;-87
2023/06/26 12:39:15;;;;;;;7.80;7.10;;;35.50;31.40;;;;;;5076011;28;20928;-88
2023/06/26 12:41:47;;;;;;;8.17;7.37;;;35.30;31.90;;;;;;5069310;28;20463;-88
2023/06/26 12:44:19;;;;;;;7.20;6.50;;;35.50;32.80;;;;;;5109716;27;20463;-88
2023/06/26 12:46:48;;;;;;;7.33;6.63;;;35.50;32.60;;;;;;5072808;28;20452;-86
2023/06/26 12:49:15;;;;;;;7.63;6.87;;;35.80;31.90;;;;;;5067568;28;20880;-86